createdAt,value
2023-04-24T00:01:35.136Z,13.50
2023-04-24T00:05:36.785Z,13.48
2023-04-24T00:09:38.336Z,13.54
2023-04-24T00:13:40.768Z,13.53
2023-04-24T00:17:42.343Z,13.48
2023-04-24T00:21:44.003Z,13.46
2023-04-24T00:25:45.571Z,13.50
2023-04-24T00:29:47.590Z,13.53
2023-04-24T00:33:49.188Z,13.50
2023-04-24T00:37:51.082Z,13.54
2023-04-24T00:41:53.510Z,13.44
2023-04-24T00:45:55.783Z,13.43
2023-04-24T00:49:57.414Z,13.38
2023-04-24T00:53:59.312Z,13.32
2023-04-24T00:58:00.976Z,13.28
2023-04-24T01:02:02.652Z,13.19
2023-04-24T01:06:05.610Z,13.22
2023-04-24T01:10:08.999Z,13.22
2023-04-24T01:14:11.080Z,13.25
2023-04-24T01:18:12.952Z,13.24
2023-04-24T01:22:15.757Z,13.22
2023-04-24T01:26:18.453Z,13.22
2023-04-24T01:30:20.095Z,13.22
2023-04-24T01:34:22.057Z,13.14
2023-04-24T01:38:23.599Z,13.14
2023-04-24T01:42:25.329Z,13.14
2023-04-24T01:46:27.264Z,13.07
2023-04-24T01:50:29.050Z,13.09
2023-04-24T01:54:30.812Z,13.12
2023-04-24T01:58:32.784Z,13.13
2023-04-24T02:02:34.868Z,13.07
2023-04-24T02:06:37.559Z,13.09
2023-04-24T02:10:39.112Z,13.07
2023-04-24T02:14:40.683Z,13.09
2023-04-24T02:18:42.194Z,13.09
2023-04-24T02:22:43.824Z,13.10
2023-04-24T02:26:45.682Z,13.07
2023-04-24T02:30:47.290Z,13.04
2023-04-24T02:34:48.983Z,13.03
2023-04-24T02:38:50.668Z,13.03
2023-04-24T02:42:52.181Z,13.06
2023-04-24T02:46:53.780Z,13.10
2023-04-24T02:50:55.427Z,13.12
2023-04-24T02:54:57.032Z,12.88
2023-04-24T02:58:58.840Z,12.80
2023-04-24T03:03:02.848Z,12.62
2023-04-24T03:07:05.534Z,12.48
2023-04-24T03:11:07.079Z,12.37
2023-04-24T03:15:09.297Z,12.30
2023-04-24T03:19:12.330Z,12.15
2023-04-24T03:23:24.242Z,12.16
2023-04-24T03:27:26.036Z,12.23
2023-04-24T03:31:34.977Z,12.30
2023-04-24T03:35:37.345Z,12.34
2023-04-24T03:39:44.209Z,12.33
2023-04-24T03:43:47.115Z,12.29
2023-04-24T03:47:48.914Z,12.19
2023-04-24T03:51:51.635Z,12.18
2023-04-24T03:55:57.619Z,12.13
2023-04-24T04:00:00.051Z,12.07
2023-04-24T04:04:02.286Z,12.00
2023-04-24T04:08:05.500Z,11.90
2023-04-24T04:12:08.732Z,11.84
2023-04-24T04:16:10.609Z,11.78
2023-04-24T04:20:12.919Z,11.75
2023-04-24T04:24:15.648Z,11.69
2023-04-24T04:28:20.913Z,11.64
2023-04-24T04:32:23.773Z,11.57
2023-04-24T04:36:25.863Z,11.48
2023-04-24T04:40:35.395Z,11.45
2023-04-24T04:44:40.848Z,11.45
2023-04-24T04:48:45.392Z,11.46
2023-04-24T04:52:47.070Z,11.46
2023-04-24T04:57:03.053Z,11.41
2023-04-24T05:01:06.371Z,11.44
2023-04-24T05:05:14.401Z,11.51
2023-04-24T05:09:16.007Z,11.51
2023-04-24T05:13:35.665Z,11.56
2023-04-24T05:17:44.997Z,11.60
2023-04-24T05:21:48.650Z,11.64
2023-04-24T05:25:50.567Z,11.57
2023-04-24T05:29:52.476Z,11.64
2023-04-24T05:33:54.212Z,11.64
2023-04-24T05:37:56.282Z,11.78
2023-04-24T05:41:59.114Z,11.94
2023-04-24T05:46:00.949Z,12.01
2023-04-24T05:50:02.524Z,12.07
2023-04-24T05:54:04.352Z,12.16
2023-04-24T05:58:06.973Z,12.16
2023-04-24T06:02:10.780Z,12.18
2023-04-24T06:06:12.461Z,12.11
2023-04-24T06:10:14.180Z,12.12
2023-04-24T06:14:18.678Z,12.15
2023-04-24T06:18:49.219Z,12.15
2023-04-24T06:22:51.237Z,12.18
2023-04-24T06:26:52.929Z,12.13
2023-04-24T06:30:54.544Z,12.12
2023-04-24T06:34:57.164Z,12.21
2023-04-24T06:38:59.984Z,12.16
2023-04-24T06:43:03.684Z,12.04
2023-04-24T06:47:05.808Z,11.67
2023-04-24T06:51:07.463Z,11.42
2023-04-24T06:55:09.419Z,11.19
2023-04-24T06:59:11.000Z,11.20
2023-04-24T07:03:12.758Z,11.17
2023-04-24T07:07:15.348Z,11.19
2023-04-24T07:11:16.934Z,11.33
2023-04-24T07:15:18.717Z,11.35
2023-04-24T07:19:20.388Z,11.41
2023-04-24T07:23:24.606Z,11.60
2023-04-24T07:27:26.631Z,11.77
2023-04-24T07:31:28.188Z,11.81
2023-04-24T07:35:29.901Z,11.75
2023-04-24T07:39:31.665Z,11.66
2023-04-24T07:43:33.150Z,11.70
2023-04-24T07:47:35.342Z,11.87
2023-04-24T07:51:39.284Z,11.96
2023-04-24T07:55:40.926Z,12.12
2023-04-24T07:59:42.982Z,12.26
2023-04-24T08:03:45.372Z,12.26
2023-04-24T08:07:49.701Z,12.37
2023-04-24T08:11:51.322Z,12.55
2023-04-24T08:15:52.957Z,12.80
2023-04-24T08:20:02.108Z,12.81
2023-04-24T08:24:06.157Z,12.89
2023-04-24T08:28:10.465Z,12.81
2023-04-24T08:32:12.064Z,12.73
2023-04-24T08:36:13.793Z,12.51
2023-04-24T08:40:16.831Z,12.38
2023-04-24T08:44:18.779Z,12.55
2023-04-24T08:48:30.358Z,12.92
2023-04-24T08:52:34.695Z,13.24
2023-04-24T08:56:40.254Z,13.36
2023-04-24T09:00:47.625Z,13.16
2023-04-24T09:04:50.655Z,13.39
2023-04-24T09:08:54.984Z,13.32
2023-04-24T09:12:59.658Z,13.12
2023-04-24T09:17:01.403Z,12.84
2023-04-24T09:21:10.785Z,12.55
2023-04-24T09:25:13.622Z,12.55
2023-04-24T09:29:19.342Z,12.80
2023-04-24T09:33:21.194Z,12.92
2023-04-24T09:37:30.347Z,13.12
2023-04-24T09:41:33.752Z,13.28
2023-04-24T09:45:40.535Z,13.54
2023-04-24T09:49:44.947Z,13.94
2023-04-24T09:53:47.974Z,14.11
2023-04-24T09:58:02.525Z,14.04
2023-04-24T10:02:04.321Z,13.94
2023-04-24T10:06:10.341Z,13.91
2023-04-24T10:10:12.260Z,13.63
2023-04-24T10:14:22.206Z,13.43
2023-04-24T10:18:25.091Z,13.29
2023-04-24T10:22:27.883Z,13.21
2023-04-24T10:26:29.487Z,13.21
2023-04-24T10:30:38.636Z,13.36
2023-04-24T10:34:40.302Z,13.41
2023-04-24T10:38:44.484Z,13.50
2023-04-24T10:42:50.071Z,13.75
2023-04-24T10:46:55.729Z,14.11
2023-04-24T10:50:57.350Z,13.94
2023-04-24T10:55:02.953Z,13.84
2023-04-24T10:59:10.629Z,14.13
2023-04-24T11:03:26.018Z,14.29
2023-04-24T11:07:27.662Z,14.21
2023-04-24T11:11:32.354Z,14.27
2023-04-24T11:15:33.946Z,14.53
2023-04-24T11:19:37.586Z,14.67
2023-04-24T11:23:39.710Z,14.46
2023-04-24T11:27:47.087Z,14.72
2023-04-24T11:31:52.475Z,15.00
2023-04-24T11:35:54.393Z,15.37
2023-04-24T11:39:58.308Z,15.53
2023-04-24T11:44:00.682Z,15.77
2023-04-24T11:48:04.532Z,15.98
2023-04-24T11:52:06.548Z,15.43
2023-04-24T11:56:10.422Z,14.78
2023-04-24T12:00:19.818Z,14.44
2023-04-24T12:04:21.764Z,14.54
2023-04-24T12:08:30.368Z,14.78
2023-04-24T12:12:31.960Z,14.97
2023-04-24T12:16:34.191Z,15.01
2023-04-24T12:20:36.557Z,14.87
2023-04-24T12:25:01.633Z,15.04
2023-04-24T12:29:04.419Z,14.87
2023-04-24T12:33:06.317Z,15.27
2023-04-24T12:37:12.499Z,15.25
2023-04-24T12:41:15.262Z,15.35
2023-04-24T12:45:18.520Z,15.37
2023-04-24T12:49:20.176Z,15.73
2023-04-24T12:53:21.814Z,16.22
2023-04-24T12:57:24.818Z,16.57
2023-04-24T13:01:27.606Z,16.36
2023-04-24T13:05:29.206Z,15.80
2023-04-24T13:09:31.006Z,15.86
2023-04-24T13:13:32.593Z,15.68
2023-04-24T13:17:34.304Z,15.66
2023-04-24T13:21:35.882Z,15.67
2023-04-24T13:25:38.489Z,16.17
2023-04-24T13:29:40.125Z,16.44
2023-04-24T13:33:42.038Z,16.30
2023-04-24T13:37:43.765Z,16.23
2023-04-24T13:41:46.155Z,15.93
2023-04-24T13:45:47.782Z,15.60
2023-04-24T13:49:49.414Z,15.55
2023-04-24T13:53:50.942Z,15.30
2023-04-24T13:57:53.251Z,15.23
2023-04-24T14:01:54.879Z,15.12
2023-04-24T14:05:56.575Z,15.09
2023-04-24T14:09:58.348Z,15.15
2023-04-24T14:14:00.385Z,15.05
2023-04-24T14:18:02.833Z,14.94
2023-04-24T14:22:05.275Z,15.03
2023-04-24T14:26:06.924Z,15.01
2023-04-24T14:30:09.455Z,14.91
2023-04-24T14:34:11.075Z,14.71
2023-04-24T14:38:12.682Z,14.45
2023-04-24T14:42:14.742Z,14.39
2023-04-24T14:46:16.612Z,14.31
2023-04-24T14:50:18.618Z,15.18
2023-04-24T14:54:23.661Z,15.22
2023-04-24T14:58:25.271Z,15.30
2023-04-24T15:02:27.269Z,15.27
2023-04-24T15:06:29.089Z,15.27
2023-04-24T15:10:30.726Z,15.25
2023-04-24T15:14:32.326Z,15.25
2023-04-24T15:18:33.872Z,15.25
2023-04-24T15:22:35.792Z,15.15
2023-04-24T15:26:37.453Z,14.91
2023-04-24T15:30:39.156Z,14.75
2023-04-24T15:34:40.688Z,14.59
2023-04-24T15:38:43.471Z,14.46
2023-04-24T15:42:46.133Z,14.38
2023-04-24T15:46:47.947Z,14.39
2023-04-24T15:50:49.832Z,14.46
2023-04-24T15:54:51.567Z,14.63
2023-04-24T15:58:53.416Z,14.90
2023-04-24T16:02:55.138Z,14.90
2023-04-24T16:06:57.668Z,15.07
2023-04-24T16:10:59.286Z,15.13
2023-04-24T16:15:01.365Z,15.81
2023-04-24T16:19:02.984Z,15.67
2023-04-24T16:23:04.575Z,15.41
2023-04-24T16:27:06.167Z,15.33
2023-04-24T16:31:07.747Z,15.67
2023-04-24T16:35:09.495Z,15.53
2023-04-24T16:39:11.142Z,15.41
2023-04-24T16:43:12.750Z,15.25
2023-04-24T16:47:14.846Z,15.31
2023-04-24T16:51:16.420Z,15.20
2023-04-24T16:55:18.203Z,15.09
2023-04-24T16:59:20.020Z,14.91
2023-04-24T17:03:21.874Z,14.74
2023-04-24T17:07:23.710Z,14.61
2023-04-24T17:11:25.570Z,14.61
2023-04-24T17:15:27.283Z,14.49
2023-04-24T17:19:29.015Z,14.46
2023-04-24T17:23:30.886Z,14.36
2023-04-24T17:27:33.162Z,14.38
2023-04-24T17:31:34.825Z,14.20
2023-04-24T17:35:36.494Z,14.20
2023-04-24T17:39:38.672Z,14.05
2023-04-24T17:43:40.437Z,13.99
2023-04-24T17:47:42.385Z,13.91
2023-04-24T17:51:44.019Z,13.93
2023-04-24T17:55:48.925Z,13.81
2023-04-24T17:59:50.756Z,13.73
2023-04-24T18:03:52.787Z,13.63
2023-04-24T18:07:55.157Z,13.59
2023-04-24T18:11:57.747Z,13.55
2023-04-24T18:15:59.392Z,13.46
2023-04-24T18:20:00.993Z,13.32
2023-04-24T18:24:02.564Z,13.31
2023-04-24T18:28:04.131Z,13.28
2023-04-24T18:32:05.789Z,13.24
2023-04-24T18:36:07.396Z,13.22
2023-04-24T18:40:09.682Z,13.22
2023-04-24T18:44:11.945Z,13.21
2023-04-24T18:48:13.631Z,13.17
2023-04-24T18:52:15.206Z,13.12
2023-04-24T18:56:16.826Z,13.07
2023-04-24T19:00:18.924Z,13.09
2023-04-24T19:04:21.614Z,13.01
2023-04-24T19:08:23.277Z,13.03
2023-04-24T19:12:24.936Z,13.01
2023-04-24T19:16:26.588Z,12.95
2023-04-24T19:20:28.192Z,12.87
2023-04-24T19:24:33.077Z,12.79
2023-04-24T19:28:34.634Z,12.63
2023-04-24T19:32:36.194Z,12.51
2023-04-24T19:36:37.740Z,12.49
2023-04-24T19:40:39.475Z,12.51
2023-04-24T19:44:41.095Z,12.49
2023-04-24T19:48:42.712Z,12.41
2023-04-24T19:52:44.211Z,12.41
2023-04-24T19:56:46.154Z,12.40
2023-04-24T20:00:47.705Z,12.29
2023-04-24T20:04:49.452Z,12.30
2023-04-24T20:08:51.436Z,12.29
2023-04-24T20:12:53.431Z,12.29
2023-04-24T20:16:55.293Z,12.22
2023-04-24T20:20:59.590Z,12.19
2023-04-24T20:25:03.095Z,12.19
2023-04-24T20:29:05.052Z,12.21
2023-04-24T20:33:06.818Z,12.21
2023-04-24T20:37:08.380Z,12.23
2023-04-24T20:41:10.339Z,12.23
2023-04-24T20:45:12.078Z,12.25
2023-04-24T20:49:13.655Z,12.25
2023-04-24T20:53:15.257Z,12.29
2023-04-24T20:57:16.979Z,12.26
2023-04-24T21:01:18.674Z,12.31
2023-04-24T21:05:20.653Z,12.33
2023-04-24T21:09:22.383Z,12.33
2023-04-24T21:13:24.015Z,12.34
2023-04-24T21:17:25.742Z,12.30
2023-04-24T21:21:27.499Z,12.26
2023-04-24T21:25:30.130Z,12.23
2023-04-24T21:29:32.693Z,12.18
2023-04-24T21:33:34.412Z,12.18
2023-04-24T21:37:37.884Z,12.21
2023-04-24T21:41:39.759Z,12.16
2023-04-24T21:45:41.333Z,12.15
2023-04-24T21:49:43.018Z,12.13
2023-04-24T21:53:44.783Z,12.04
2023-04-24T21:57:46.449Z,12.04
2023-04-24T22:01:48.189Z,12.04
2023-04-24T22:05:49.858Z,12.01
2023-04-24T22:09:51.684Z,11.97
2023-04-24T22:13:54.217Z,11.93
2023-04-24T22:17:57.560Z,11.84
2023-04-24T22:21:59.295Z,11.88
2023-04-24T22:26:00.904Z,11.96
2023-04-24T22:30:02.696Z,12.01
2023-04-24T22:34:04.285Z,12.04
2023-04-24T22:38:06.104Z,12.04
2023-04-24T22:42:07.685Z,12.07
2023-04-24T22:46:09.252Z,12.03
2023-04-24T22:50:11.308Z,12.04
2023-04-24T22:54:12.932Z,12.03
2023-04-24T22:58:15.711Z,12.01
2023-04-24T23:02:17.539Z,12.03
2023-04-24T23:06:19.126Z,11.96
2023-04-24T23:10:21.557Z,11.94
2023-04-24T23:14:24.562Z,11.87
2023-04-24T23:18:26.318Z,11.88
2023-04-24T23:22:27.984Z,11.87
2023-04-24T23:26:29.585Z,11.84
2023-04-24T23:30:31.189Z,11.79
2023-04-24T23:34:34.008Z,11.78
2023-04-24T23:38:43.163Z,11.75
2023-04-24T23:43:03.213Z,11.78
2023-04-24T23:47:05.155Z,11.78
2023-04-24T23:51:06.687Z,11.75
2023-04-24T23:55:09.450Z,11.74
2023-04-24T23:59:11.131Z,11.69
